sensor_id;sensor_type;location;lat;lon;timestamp;P1;durP1;ratioP1;P2;durP2;ratioP2
19621;SDS011;9958;33.196;-97.114;2023-04-03T00:01:35;13.82;;;9.88;;
19621;SDS011;9958;33.196;-97.114;2023-04-03T00:04:05;20.33;;;9.85;;
19621;SDS011;9958;33.196;-97.114;2023-04-03T00:06:33;13.10;;;8.75;;
19621;SDS011;9958;33.196;-97.114;2023-04-03T00:09:02;16.27;;;9.15;;
19621;SDS011;9958;33.196;-97.114;2023-04-03T00:11:32;14.60;;;9.32;;
19621;SDS011;9958;33.196;-97.114;2023-04-03T00:14:01;7.82;;;5.32;;
19621;SDS011;9958;33.196;-97.114;2023-04-03T00:16:29;7.55;;;4.07;;
19621;SDS011;9958;33.196;-97.114;2023-04-03T00:18:58;4.10;;;3.70;;
19621;SDS011;9958;33.196;-97.114;2023-04-03T00:21:26;4.43;;;3.55;;
19621;SDS011;9958;33.196;-97.114;2023-04-03T00:23:56;3.58;;;2.97;;
19621;SDS011;9958;33.196;-97.114;2023-04-03T00:26:24;5.20;;;4.00;;
19621;SDS011;9958;33.196;-97.114;2023-04-03T00:28:54;6.47;;;3.97;;
19621;SDS011;9958;33.196;-97.114;2023-04-03T00:31:23;7.60;;;3.72;;
19621;SDS011;9958;33.196;-97.114;2023-04-03T00:33:52;6.47;;;3.83;;
19621;SDS011;9958;33.196;-97.114;2023-04-03T00:36:20;6.78;;;4.70;;
19621;SDS011;9958;33.196;-97.114;2023-04-03T00:38:49;5.85;;;4.55;;
19621;SDS011;9958;33.196;-97.114;2023-04-03T00:41:17;7.18;;;4.75;;
19621;SDS011;9958;33.196;-97.114;2023-04-03T00:43:46;6.63;;;4.78;;
19621;SDS011;9958;33.196;-97.114;2023-04-03T00:46:17;7.75;;;4.28;;
19621;SDS011;9958;33.196;-97.114;2023-04-03T00:48:46;6.05;;;4.72;;
19621;SDS011;9958;33.196;-97.114;2023-04-03T00:51:19;6.32;;;5.32;;
19621;SDS011;9958;33.196;-97.114;2023-04-03T00:53:53;6.72;;;5.03;;
19621;SDS011;9958;33.196;-97.114;2023-04-03T00:56:26;7.40;;;5.40;;
19621;SDS011;9958;33.196;-97.114;2023-04-03T00:58:57;9.25;;;5.13;;
19621;SDS011;9958;33.196;-97.114;2023-04-03T01:01:31;8.90;;;5.05;;
19621;SDS011;9958;33.196;-97.114;2023-04-03T01:03:59;8.40;;;5.50;;
19621;SDS011;9958;33.196;-97.114;2023-04-03T01:06:30;12.70;;;5.15;;
19621;SDS011;9958;33.196;-97.114;2023-04-03T01:09:00;6.47;;;4.68;;
19621;SDS011;9958;33.196;-97.114;2023-04-03T01:11:29;8.52;;;5.28;;
19621;SDS011;9958;33.196;-97.114;2023-04-03T01:13:58;6.95;;;5.43;;
19621;SDS011;9958;33.196;-97.114;2023-04-03T01:16:27;7.60;;;5.57;;
19621;SDS011;9958;33.196;-97.114;2023-04-03T01:18:58;6.80;;;4.95;;
19621;SDS011;9958;33.196;-97.114;2023-04-03T01:21:42;7.13;;;4.75;;
19621;SDS011;9958;33.196;-97.114;2023-04-03T01:24:33;6.07;;;4.55;;
19621;SDS011;9958;33.196;-97.114;2023-04-03T01:27:05;6.32;;;4.63;;
19621;SDS011;9958;33.196;-97.114;2023-04-03T01:29:34;5.60;;;4.60;;
19621;SDS011;9958;33.196;-97.114;2023-04-03T01:32:05;7.85;;;4.80;;
19621;SDS011;9958;33.196;-97.114;2023-04-03T01:34:34;4.35;;;3.90;;
19621;SDS011;9958;33.196;-97.114;2023-04-03T01:37:03;5.55;;;4.78;;
19621;SDS011;9958;33.196;-97.114;2023-04-03T01:39:31;5.93;;;4.25;;
19621;SDS011;9958;33.196;-97.114;2023-04-03T01:42:00;7.80;;;3.95;;
19621;SDS011;9958;33.196;-97.114;2023-04-03T01:44:29;7.10;;;4.82;;
19621;SDS011;9958;33.196;-97.114;2023-04-03T01:46:57;7.03;;;4.22;;
19621;SDS011;9958;33.196;-97.114;2023-04-03T01:49:27;7.00;;;3.88;;
19621;SDS011;9958;33.196;-97.114;2023-04-03T01:51:56;5.75;;;4.10;;
19621;SDS011;9958;33.196;-97.114;2023-04-03T01:54:24;5.63;;;4.50;;
19621;SDS011;9958;33.196;-97.114;2023-04-03T01:56:53;5.35;;;4.55;;
19621;SDS011;9958;33.196;-97.114;2023-04-03T01:59:22;5.25;;;4.00;;
19621;SDS011;9958;33.196;-97.114;2023-04-03T02:01:50;6.40;;;4.28;;
19621;SDS011;9958;33.196;-97.114;2023-04-03T02:04:19;5.53;;;3.58;;
19621;SDS011;9958;33.196;-97.114;2023-04-03T02:06:49;5.80;;;3.97;;
19621;SDS011;9958;33.196;-97.114;2023-04-03T02:09:18;4.88;;;3.90;;
19621;SDS011;9958;33.196;-97.114;2023-04-03T02:11:46;8.40;;;3.97;;
19621;SDS011;9958;33.196;-97.114;2023-04-03T02:14:15;6.57;;;4.10;;
19621;SDS011;9958;33.196;-97.114;2023-04-03T02:16:43;3.88;;;3.38;;
19621;SDS011;9958;33.196;-97.114;2023-04-03T02:19:12;8.57;;;4.30;;
19621;SDS011;9958;33.196;-97.114;2023-04-03T02:21:41;5.57;;;3.88;;
19621;SDS011;9958;33.196;-97.114;2023-04-03T02:24:11;3.92;;;2.92;;
19621;SDS011;9958;33.196;-97.114;2023-04-03T02:26:40;7.15;;;3.15;;
19621;SDS011;9958;33.196;-97.114;2023-04-03T02:29:09;3.90;;;3.35;;
19621;SDS011;9958;33.196;-97.114;2023-04-03T02:31:38;5.75;;;3.63;;
19621;SDS011;9958;33.196;-97.114;2023-04-03T02:34:06;5.55;;;3.25;;
19621;SDS011;9958;33.196;-97.114;2023-04-03T02:36:35;3.67;;;2.88;;
19621;SDS011;9958;33.196;-97.114;2023-04-03T02:39:04;4.22;;;3.33;;
19621;SDS011;9958;33.196;-97.114;2023-04-03T02:41:34;4.40;;;3.28;;
19621;SDS011;9958;33.196;-97.114;2023-04-03T02:44:04;4.32;;;3.00;;
19621;SDS011;9958;33.196;-97.114;2023-04-03T02:46:33;10.45;;;4.05;;
19621;SDS011;9958;33.196;-97.114;2023-04-03T02:49:02;3.88;;;3.00;;
19621;SDS011;9958;33.196;-97.114;2023-04-03T02:51:31;4.65;;;3.00;;
19621;SDS011;9958;33.196;-97.114;2023-04-03T02:53:59;3.25;;;2.95;;
19621;SDS011;9958;33.196;-97.114;2023-04-03T02:56:28;3.67;;;2.90;;
19621;SDS011;9958;33.196;-97.114;2023-04-03T02:58:58;5.38;;;3.30;;
19621;SDS011;9958;33.196;-97.114;2023-04-03T03:01:27;4.22;;;3.03;;
19621;SDS011;9958;33.196;-97.114;2023-04-03T03:03:58;5.82;;;3.05;;
19621;SDS011;9958;33.196;-97.114;2023-04-03T03:06:27;8.02;;;2.90;;
19621;SDS011;9958;33.196;-97.114;2023-04-03T03:08:55;3.85;;;2.53;;
19621;SDS011;9958;33.196;-97.114;2023-04-03T03:11:24;5.30;;;2.88;;
19621;SDS011;9958;33.196;-97.114;2023-04-03T03:13:52;4.90;;;2.70;;
19621;SDS011;9958;33.196;-97.114;2023-04-03T03:16:22;2.90;;;2.55;;
19621;SDS011;9958;33.196;-97.114;2023-04-03T03:18:51;3.92;;;2.72;;
19621;SDS011;9958;33.196;-97.114;2023-04-03T03:21:20;8.23;;;3.00;;
19621;SDS011;9958;33.196;-97.114;2023-04-03T03:23:49;5.88;;;3.15;;
19621;SDS011;9958;33.196;-97.114;2023-04-03T03:26:17;3.60;;;2.90;;
19621;SDS011;9958;33.196;-97.114;2023-04-03T03:28:46;5.63;;;2.67;;
19621;SDS011;9958;33.196;-97.114;2023-04-03T03:31:15;4.78;;;2.60;;
19621;SDS011;9958;33.196;-97.114;2023-04-03T03:33:45;4.65;;;2.53;;
19621;SDS011;9958;33.196;-97.114;2023-04-03T03:36:13;5.70;;;2.95;;
19621;SDS011;9958;33.196;-97.114;2023-04-03T03:38:42;5.60;;;2.53;;
19621;SDS011;9958;33.196;-97.114;2023-04-03T03:41:10;4.78;;;2.33;;
19621;SDS011;9958;33.196;-97.114;2023-04-03T03:43:40;4.38;;;2.63;;
19621;SDS011;9958;33.196;-97.114;2023-04-03T03:46:08;5.18;;;2.97;;
19621;SDS011;9958;33.196;-97.114;2023-04-03T03:48:37;5.85;;;2.70;;
19621;SDS011;9958;33.196;-97.114;2023-04-03T03:51:07;3.58;;;2.22;;
19621;SDS011;9958;33.196;-97.114;2023-04-03T03:53:36;5.05;;;2.70;;
19621;SDS011;9958;33.196;-97.114;2023-04-03T03:56:05;4.65;;;2.50;;
19621;SDS011;9958;33.196;-97.114;2023-04-03T03:58:34;5.05;;;2.78;;
19621;SDS011;9958;33.196;-97.114;2023-04-03T04:01:02;5.57;;;3.10;;
19621;SDS011;9958;33.196;-97.114;2023-04-03T04:03:32;2.92;;;2.42;;
19621;SDS011;9958;33.196;-97.114;2023-04-03T04:06:01;5.15;;;2.65;;
19621;SDS011;9958;33.196;-97.114;2023-04-03T04:08:31;4.30;;;2.50;;
19621;SDS011;9958;33.196;-97.114;2023-04-03T04:11:00;3.95;;;3.03;;
19621;SDS011;9958;33.196;-97.114;2023-04-03T04:13:28;4.15;;;2.75;;
19621;SDS011;9958;33.196;-97.114;2023-04-03T04:15:57;3.25;;;2.33;;
19621;SDS011;9958;33.196;-97.114;2023-04-03T04:18:25;5.78;;;2.72;;
19621;SDS011;9958;33.196;-97.114;2023-04-03T04:20:54;3.90;;;2.90;;
19621;SDS011;9958;33.196;-97.114;2023-04-03T04:23:23;4.93;;;2.70;;
19621;SDS011;9958;33.196;-97.114;2023-04-03T04:25:55;5.97;;;2.63;;
19621;SDS011;9958;33.196;-97.114;2023-04-03T04:28:23;3.75;;;2.53;;
19621;SDS011;9958;33.196;-97.114;2023-04-03T04:30:52;3.25;;;2.70;;
19621;SDS011;9958;33.196;-97.114;2023-04-03T04:33:21;4.03;;;2.67;;
19621;SDS011;9958;33.196;-97.114;2023-04-03T04:35:49;4.70;;;2.75;;
19621;SDS011;9958;33.196;-97.114;2023-04-03T04:38:18;4.35;;;2.70;;
19621;SDS011;9958;33.196;-97.114;2023-04-03T04:40:47;3.30;;;2.50;;
19621;SDS011;9958;33.196;-97.114;2023-04-03T04:43:17;4.05;;;2.92;;
19621;SDS011;9958;33.196;-97.114;2023-04-03T04:45:46;4.47;;;2.67;;
19621;SDS011;9958;33.196;-97.114;2023-04-03T04:48:14;3.10;;;2.47;;
19621;SDS011;9958;33.196;-97.114;2023-04-03T04:50:43;4.07;;;2.55;;
19621;SDS011;9958;33.196;-97.114;2023-04-03T04:53:12;5.40;;;2.53;;
19621;SDS011;9958;33.196;-97.114;2023-04-03T04:55:41;3.40;;;2.58;;
19621;SDS011;9958;33.196;-97.114;2023-04-03T04:58:09;4.55;;;2.45;;
19621;SDS011;9958;33.196;-97.114;2023-04-03T05:00:39;5.40;;;2.92;;
19621;SDS011;9958;33.196;-97.114;2023-04-03T05:03:08;2.47;;;2.28;;
19621;SDS011;9958;33.196;-97.114;2023-04-03T05:05:37;2.53;;;2.13;;
19621;SDS011;9958;33.196;-97.114;2023-04-03T05:08:05;3.75;;;2.25;;
19621;SDS011;9958;33.196;-97.114;2023-04-03T05:10:35;3.70;;;2.65;;
19621;SDS011;9958;33.196;-97.114;2023-04-03T05:13:03;5.30;;;2.78;;
19621;SDS011;9958;33.196;-97.114;2023-04-03T05:15:32;2.60;;;2.15;;
19621;SDS011;9958;33.196;-97.114;2023-04-03T05:18:02;3.05;;;2.40;;
19621;SDS011;9958;33.196;-97.114;2023-04-03T05:20:31;2.80;;;2.30;;
19621;SDS011;9958;33.196;-97.114;2023-04-03T05:23:01;5.32;;;2.28;;
19621;SDS011;9958;33.196;-97.114;2023-04-03T05:25:29;3.90;;;2.80;;
19621;SDS011;9958;33.196;-97.114;2023-04-03T05:27:58;3.08;;;2.40;;
19621;SDS011;9958;33.196;-97.114;2023-04-03T05:30:27;4.75;;;2.28;;
19621;SDS011;9958;33.196;-97.114;2023-04-03T05:32:55;3.78;;;2.53;;
19621;SDS011;9958;33.196;-97.114;2023-04-03T05:35:27;2.97;;;2.67;;
19621;SDS011;9958;33.196;-97.114;2023-04-03T05:37:55;8.18;;;2.45;;
19621;SDS011;9958;33.196;-97.114;2023-04-03T05:40:24;3.38;;;2.85;;
19621;SDS011;9958;33.196;-97.114;2023-04-03T05:42:52;3.30;;;2.42;;
19621;SDS011;9958;33.196;-97.114;2023-04-03T05:45:21;5.28;;;2.83;;
19621;SDS011;9958;33.196;-97.114;2023-04-03T05:47:49;4.15;;;2.38;;
19621;SDS011;9958;33.196;-97.114;2023-04-03T05:50:18;2.97;;;2.67;;
19621;SDS011;9958;33.196;-97.114;2023-04-03T05:52:48;3.05;;;2.47;;
19621;SDS011;9958;33.196;-97.114;2023-04-03T05:55:19;6.22;;;2.90;;
19621;SDS011;9958;33.196;-97.114;2023-04-03T05:57:47;3.03;;;2.65;;
19621;SDS011;9958;33.196;-97.114;2023-04-03T06:00:16;3.88;;;2.75;;
19621;SDS011;9958;33.196;-97.114;2023-04-03T06:02:45;3.65;;;2.63;;
19621;SDS011;9958;33.196;-97.114;2023-04-03T06:05:13;3.58;;;2.72;;
19621;SDS011;9958;33.196;-97.114;2023-04-03T06:07:42;4.10;;;2.92;;
19621;SDS011;9958;33.196;-97.114;2023-04-03T06:10:12;4.82;;;3.08;;
19621;SDS011;9958;33.196;-97.114;2023-04-03T06:12:41;5.03;;;3.35;;
19621;SDS011;9958;33.196;-97.114;2023-04-03T06:15:10;6.35;;;2.97;;
19621;SDS011;9958;33.196;-97.114;2023-04-03T06:17:38;5.10;;;4.03;;
19621;SDS011;9958;33.196;-97.114;2023-04-03T06:20:07;5.43;;;3.90;;
19621;SDS011;9958;33.196;-97.114;2023-04-03T06:22:36;5.43;;;4.18;;
19621;SDS011;9958;33.196;-97.114;2023-04-03T06:25:05;4.72;;;3.50;;
19621;SDS011;9958;33.196;-97.114;2023-04-03T06:27:36;6.43;;;4.25;;
19621;SDS011;9958;33.196;-97.114;2023-04-03T06:30:05;5.43;;;4.10;;
19621;SDS011;9958;33.196;-97.114;2023-04-03T06:32:34;6.45;;;4.13;;
19621;SDS011;9958;33.196;-97.114;2023-04-03T06:35:03;6.93;;;3.65;;
19621;SDS011;9958;33.196;-97.114;2023-04-03T06:37:32;7.47;;;4.68;;
19621;SDS011;9958;33.196;-97.114;2023-04-03T06:40:01;6.75;;;4.15;;
19621;SDS011;9958;33.196;-97.114;2023-04-03T06:42:30;5.85;;;4.30;;
19621;SDS011;9958;33.196;-97.114;2023-04-03T06:45:00;6.65;;;4.22;;
19621;SDS011;9958;33.196;-97.114;2023-04-03T06:47:28;8.95;;;4.55;;
19621;SDS011;9958;33.196;-97.114;2023-04-03T06:49:57;7.65;;;4.68;;
19621;SDS011;9958;33.196;-97.114;2023-04-03T06:52:25;5.70;;;4.63;;
19621;SDS011;9958;33.196;-97.114;2023-04-03T06:54:53;7.45;;;4.85;;
19621;SDS011;9958;33.196;-97.114;2023-04-03T06:57:24;6.47;;;4.90;;
19621;SDS011;9958;33.196;-97.114;2023-04-03T06:59:53;7.43;;;4.95;;
19621;SDS011;9958;33.196;-97.114;2023-04-03T07:02:23;6.95;;;4.55;;
19621;SDS011;9958;33.196;-97.114;2023-04-03T07:04:51;9.13;;;4.97;;
19621;SDS011;9958;33.196;-97.114;2023-04-03T07:07:20;7.95;;;5.13;;
19621;SDS011;9958;33.196;-97.114;2023-04-03T07:09:48;9.93;;;5.72;;
19621;SDS011;9958;33.196;-97.114;2023-04-03T07:12:17;8.27;;;5.43;;
19621;SDS011;9958;33.196;-97.114;2023-04-03T07:14:45;10.73;;;5.22;;
19621;SDS011;9958;33.196;-97.114;2023-04-03T07:17:13;12.60;;;6.47;;
19621;SDS011;9958;33.196;-97.114;2023-04-03T07:19:44;9.75;;;5.93;;
19621;SDS011;9958;33.196;-97.114;2023-04-03T07:22:12;12.68;;;5.88;;
19621;SDS011;9958;33.196;-97.114;2023-04-03T07:24:40;9.75;;;6.15;;
19621;SDS011;9958;33.196;-97.114;2023-04-03T07:27:09;11.02;;;5.95;;
19621;SDS011;9958;33.196;-97.114;2023-04-03T07:29:38;8.95;;;5.70;;
19621;SDS011;9958;33.196;-97.114;2023-04-03T07:32:06;9.32;;;5.75;;
19621;SDS011;9958;33.196;-97.114;2023-04-03T07:34:35;11.35;;;6.20;;
19621;SDS011;9958;33.196;-97.114;2023-04-03T07:37:05;10.13;;;6.07;;
19621;SDS011;9958;33.196;-97.114;2023-04-03T07:39:34;8.93;;;6.28;;
19621;SDS011;9958;33.196;-97.114;2023-04-03T07:42:02;9.07;;;6.20;;
19621;SDS011;9958;33.196;-97.114;2023-04-03T07:44:31;11.18;;;5.75;;
19621;SDS011;9958;33.196;-97.114;2023-04-03T07:46:59;12.55;;;6.85;;
19621;SDS011;9958;33.196;-97.114;2023-04-03T07:49:28;11.32;;;6.70;;
19621;SDS011;9958;33.196;-97.114;2023-04-03T07:51:58;9.73;;;6.68;;
19621;SDS011;9958;33.196;-97.114;2023-04-03T07:54:28;10.02;;;6.82;;
19621;SDS011;9958;33.196;-97.114;2023-04-03T07:56:56;11.40;;;6.50;;
19621;SDS011;9958;33.196;-97.114;2023-04-03T07:59:25;9.95;;;7.03;;
19621;SDS011;9958;33.196;-97.114;2023-04-03T08:01:54;12.52;;;7.32;;
19621;SDS011;9958;33.196;-97.114;2023-04-03T08:04:22;9.75;;;6.72;;
19621;SDS011;9958;33.196;-97.114;2023-04-03T08:06:51;11.13;;;7.82;;
19621;SDS011;9958;33.196;-97.114;2023-04-03T08:09:20;11.82;;;7.63;;
19621;SDS011;9958;33.196;-97.114;2023-04-03T08:11:50;11.75;;;7.43;;
19621;SDS011;9958;33.196;-97.114;2023-04-03T08:14:19;16.38;;;8.65;;
19621;SDS011;9958;33.196;-97.114;2023-04-03T08:16:47;10.60;;;7.65;;
19621;SDS011;9958;33.196;-97.114;2023-04-03T08:19:16;11.90;;;7.78;;
19621;SDS011;9958;33.196;-97.114;2023-04-03T08:21:44;10.80;;;7.68;;
19621;SDS011;9958;33.196;-97.114;2023-04-03T08:24:12;10.75;;;8.30;;
19621;SDS011;9958;33.196;-97.114;2023-04-03T08:26:41;14.80;;;8.45;;
19621;SDS011;9958;33.196;-97.114;2023-04-03T08:29:11;11.38;;;7.78;;
19621;SDS011;9958;33.196;-97.114;2023-04-03T08:31:39;14.48;;;9.73;;
19621;SDS011;9958;33.196;-97.114;2023-04-03T08:34:08;13.25;;;7.68;;
19621;SDS011;9958;33.196;-97.114;2023-04-03T08:36:36;11.85;;;8.00;;
19621;SDS011;9958;33.196;-97.114;2023-04-03T08:39:05;12.32;;;8.25;;
19621;SDS011;9958;33.196;-97.114;2023-04-03T08:41:34;12.98;;;8.60;;
19621;SDS011;9958;33.196;-97.114;2023-04-03T08:44:09;13.13;;;9.23;;
19621;SDS011;9958;33.196;-97.114;2023-04-03T08:46:52;13.35;;;8.90;;
19621;SDS011;9958;33.196;-97.114;2023-04-03T08:49:40;17.15;;;8.75;;
19621;SDS011;9958;33.196;-97.114;2023-04-03T08:52:13;12.27;;;9.10;;
19621;SDS011;9958;33.196;-97.114;2023-04-03T08:54:48;11.38;;;8.43;;
19621;SDS011;9958;33.196;-97.114;2023-04-03T08:57:20;12.02;;;8.35;;
19621;SDS011;9958;33.196;-97.114;2023-04-03T08:59:56;13.40;;;8.77;;
19621;SDS011;9958;33.196;-97.114;2023-04-03T09:02:28;14.50;;;8.27;;
19621;SDS011;9958;33.196;-97.114;2023-04-03T09:05:01;13.35;;;8.52;;
19621;SDS011;9958;33.196;-97.114;2023-04-03T09:07:39;12.85;;;9.15;;
19621;SDS011;9958;33.196;-97.114;2023-04-03T09:10:12;14.85;;;8.52;;
19621;SDS011;9958;33.196;-97.114;2023-04-03T09:12:42;14.25;;;9.27;;
19621;SDS011;9958;33.196;-97.114;2023-04-03T09:15:18;12.77;;;8.88;;
19621;SDS011;9958;33.196;-97.114;2023-04-03T09:17:51;12.43;;;8.60;;
19621;SDS011;9958;33.196;-97.114;2023-04-03T09:20:29;14.43;;;8.70;;
19621;SDS011;9958;33.196;-97.114;2023-04-03T09:23:12;15.68;;;8.80;;
19621;SDS011;9958;33.196;-97.114;2023-04-03T09:25:53;13.68;;;8.75;;
19621;SDS011;9958;33.196;-97.114;2023-04-03T09:28:27;14.23;;;8.32;;
19621;SDS011;9958;33.196;-97.114;2023-04-03T09:30:58;14.60;;;8.70;;
19621;SDS011;9958;33.196;-97.114;2023-04-03T09:33:29;13.13;;;9.40;;
19621;SDS011;9958;33.196;-97.114;2023-04-03T09:35:58;12.23;;;8.30;;
19621;SDS011;9958;33.196;-97.114;2023-04-03T09:38:26;10.48;;;8.48;;
19621;SDS011;9958;33.196;-97.114;2023-04-03T09:41:04;16.95;;;7.95;;
19621;SDS011;9958;33.196;-97.114;2023-04-03T09:43:34;12.77;;;8.32;;
19621;SDS011;9958;33.196;-97.114;2023-04-03T09:46:28;11.40;;;7.90;;
19621;SDS011;9958;33.196;-97.114;2023-04-03T09:48:59;12.77;;;8.88;;
19621;SDS011;9958;33.196;-97.114;2023-04-03T09:51:29;14.07;;;8.85;;
19621;SDS011;9958;33.196;-97.114;2023-04-03T09:53:58;10.80;;;8.20;;
19621;SDS011;9958;33.196;-97.114;2023-04-03T09:56:27;12.93;;;9.60;;
19621;SDS011;9958;33.196;-97.114;2023-04-03T09:59:07;15.35;;;8.85;;
19621;SDS011;9958;33.196;-97.114;2023-04-03T10:01:50;13.73;;;8.68;;
19621;SDS011;9958;33.196;-97.114;2023-04-03T10:04:25;11.85;;;8.77;;
19621;SDS011;9958;33.196;-97.114;2023-04-03T10:07:25;10.73;;;8.32;;
19621;SDS011;9958;33.196;-97.114;2023-04-03T10:09:56;13.75;;;8.40;;
19621;SDS011;9958;33.196;-97.114;2023-04-03T10:12:24;17.02;;;8.52;;
19621;SDS011;9958;33.196;-97.114;2023-04-03T10:14:56;13.38;;;8.57;;
19621;SDS011;9958;33.196;-97.114;2023-04-03T10:17:30;14.27;;;8.52;;
19621;SDS011;9958;33.196;-97.114;2023-04-03T10:20:07;8.40;;;7.50;;
19621;SDS011;9958;33.196;-97.114;2023-04-03T10:22:49;11.15;;;8.20;;
19621;SDS011;9958;33.196;-97.114;2023-04-03T10:25:28;11.18;;;8.20;;
19621;SDS011;9958;33.196;-97.114;2023-04-03T10:28:04;14.27;;;8.45;;
19621;SDS011;9958;33.196;-97.114;2023-04-03T10:30:41;12.13;;;8.65;;
19621;SDS011;9958;33.196;-97.114;2023-04-03T10:33:20;13.43;;;8.43;;
19621;SDS011;9958;33.196;-97.114;2023-04-03T10:36:09;9.90;;;7.53;;
19621;SDS011;9958;33.196;-97.114;2023-04-03T10:38:48;11.55;;;8.05;;
19621;SDS011;9958;33.196;-97.114;2023-04-03T10:41:27;10.88;;;8.40;;
19621;SDS011;9958;33.196;-97.114;2023-04-03T10:44:08;11.18;;;8.27;;
19621;SDS011;9958;33.196;-97.114;2023-04-03T10:46:46;11.90;;;8.45;;
19621;SDS011;9958;33.196;-97.114;2023-04-03T10:49:21;13.13;;;8.45;;
19621;SDS011;9958;33.196;-97.114;2023-04-03T10:52:02;13.40;;;7.82;;
19621;SDS011;9958;33.196;-97.114;2023-04-03T10:54:40;12.10;;;8.52;;
19621;SDS011;9958;33.196;-97.114;2023-04-03T10:57:14;13.15;;;8.63;;
19621;SDS011;9958;33.196;-97.114;2023-04-03T10:59:43;13.85;;;8.07;;
19621;SDS011;9958;33.196;-97.114;2023-04-03T11:02:16;12.38;;;8.20;;
19621;SDS011;9958;33.196;-97.114;2023-04-03T11:04:52;12.88;;;9.23;;
19621;SDS011;9958;33.196;-97.114;2023-04-03T11:07:24;13.55;;;8.10;;
19621;SDS011;9958;33.196;-97.114;2023-04-03T11:09:57;14.38;;;8.55;;
19621;SDS011;9958;33.196;-97.114;2023-04-03T11:12:33;11.85;;;8.15;;
19621;SDS011;9958;33.196;-97.114;2023-04-03T11:15:11;14.05;;;8.77;;
19621;SDS011;9958;33.196;-97.114;2023-04-03T11:17:43;11.65;;;8.57;;
19621;SDS011;9958;33.196;-97.114;2023-04-03T11:20:20;10.00;;;8.50;;
19621;SDS011;9958;33.196;-97.114;2023-04-03T11:22:54;11.43;;;8.52;;
19621;SDS011;9958;33.196;-97.114;2023-04-03T11:25:27;12.98;;;9.65;;
19621;SDS011;9958;33.196;-97.114;2023-04-03T11:27:58;12.43;;;8.65;;
19621;SDS011;9958;33.196;-97.114;2023-04-03T11:30:30;11.98;;;9.02;;
19621;SDS011;9958;33.196;-97.114;2023-04-03T11:33:12;14.60;;;8.80;;
19621;SDS011;9958;33.196;-97.114;2023-04-03T11:35:51;17.85;;;9.57;;
19621;SDS011;9958;33.196;-97.114;2023-04-03T11:38:22;15.00;;;9.20;;
19621;SDS011;9958;33.196;-97.114;2023-04-03T11:40:54;18.63;;;9.75;;
19621;SDS011;9958;33.196;-97.114;2023-04-03T11:43:24;11.73;;;8.85;;
19621;SDS011;9958;33.196;-97.114;2023-04-03T11:45:58;14.52;;;9.05;;
19621;SDS011;9958;33.196;-97.114;2023-04-03T11:54:35;14.43;;;9.23;;
19621;SDS011;9958;33.196;-97.114;2023-04-03T12:00:50;13.45;;;9.70;;
19621;SDS011;9958;33.196;-97.114;2023-04-03T12:03:33;16.27;;;9.95;;
19621;SDS011;9958;33.196;-97.114;2023-04-03T12:09:27;9.98;;;8.18;;
19621;SDS011;9958;33.196;-97.114;2023-04-03T12:11:59;11.90;;;9.27;;
19621;SDS011;9958;33.196;-97.114;2023-04-03T12:14:48;16.73;;;9.80;;
19621;SDS011;9958;33.196;-97.114;2023-04-03T12:17:19;13.07;;;10.48;;
19621;SDS011;9958;33.196;-97.114;2023-04-03T12:19:51;12.57;;;9.45;;
19621;SDS011;9958;33.196;-97.114;2023-04-03T12:22:20;13.20;;;9.38;;
19621;SDS011;9958;33.196;-97.114;2023-04-03T12:24:51;14.10;;;9.60;;
19621;SDS011;9958;33.196;-97.114;2023-04-03T12:27:27;12.40;;;8.90;;
19621;SDS011;9958;33.196;-97.114;2023-04-03T12:30:19;12.20;;;9.15;;
19621;SDS011;9958;33.196;-97.114;2023-04-03T12:35:55;13.07;;;9.40;;
19621;SDS011;9958;33.196;-97.114;2023-04-03T12:38:34;14.32;;;9.82;;
19621;SDS011;9958;33.196;-97.114;2023-04-03T12:41:30;12.38;;;8.68;;
19621;SDS011;9958;33.196;-97.114;2023-04-03T12:47:16;14.27;;;10.63;;
19621;SDS011;9958;33.196;-97.114;2023-04-03T12:49:53;15.52;;;10.35;;
19621;SDS011;9958;33.196;-97.114;2023-04-03T12:52:32;19.30;;;10.00;;
19621;SDS011;9958;33.196;-97.114;2023-04-03T12:55:11;9.95;;;8.38;;
19621;SDS011;9958;33.196;-97.114;2023-04-03T12:57:44;11.90;;;9.20;;
19621;SDS011;9958;33.196;-97.114;2023-04-03T13:00:28;11.20;;;8.75;;
19621;SDS011;9958;33.196;-97.114;2023-04-03T13:02:59;9.90;;;7.90;;
19621;SDS011;9958;33.196;-97.114;2023-04-03T13:05:28;11.15;;;8.43;;
19621;SDS011;9958;33.196;-97.114;2023-04-03T13:07:59;9.98;;;6.85;;
19621;SDS011;9958;33.196;-97.114;2023-04-03T13:10:30;15.05;;;8.18;;
19621;SDS011;9958;33.196;-97.114;2023-04-03T13:13:08;14.60;;;8.27;;
19621;SDS011;9958;33.196;-97.114;2023-04-03T13:15:40;9.20;;;7.05;;
19621;SDS011;9958;33.196;-97.114;2023-04-03T13:18:24;11.40;;;7.45;;
19621;SDS011;9958;33.196;-97.114;2023-04-03T13:20:59;9.00;;;7.45;;
19621;SDS011;9958;33.196;-97.114;2023-04-03T13:23:31;9.65;;;7.97;;
19621;SDS011;9958;33.196;-97.114;2023-04-03T13:26:01;13.55;;;9.35;;
19621;SDS011;9958;33.196;-97.114;2023-04-03T13:28:33;11.98;;;8.77;;
19621;SDS011;9958;33.196;-97.114;2023-04-03T13:31:04;12.25;;;9.60;;
19621;SDS011;9958;33.196;-97.114;2023-04-03T13:33:36;11.68;;;8.55;;
19621;SDS011;9958;33.196;-97.114;2023-04-03T13:36:06;11.73;;;8.88;;
19621;SDS011;9958;33.196;-97.114;2023-04-03T13:38:43;13.20;;;9.23;;
19621;SDS011;9958;33.196;-97.114;2023-04-03T13:41:23;14.40;;;9.90;;
19621;SDS011;9958;33.196;-97.114;2023-04-03T13:43:54;14.57;;;9.13;;
19621;SDS011;9958;33.196;-97.114;2023-04-03T13:46:24;12.32;;;9.52;;
19621;SDS011;9958;33.196;-97.114;2023-04-03T13:48:53;15.60;;;9.23;;
19621;SDS011;9958;33.196;-97.114;2023-04-03T13:51:24;11.93;;;9.45;;
19621;SDS011;9958;33.196;-97.114;2023-04-03T13:53:56;13.07;;;9.98;;
19621;SDS011;9958;33.196;-97.114;2023-04-03T13:56:27;13.27;;;10.13;;
19621;SDS011;9958;33.196;-97.114;2023-04-03T13:59:02;11.27;;;10.07;;
19621;SDS011;9958;33.196;-97.114;2023-04-03T14:01:37;11.88;;;9.48;;
19621;SDS011;9958;33.196;-97.114;2023-04-03T14:04:13;15.88;;;9.75;;
19621;SDS011;9958;33.196;-97.114;2023-04-03T14:06:44;14.65;;;10.05;;
19621;SDS011;9958;33.196;-97.114;2023-04-03T14:09:13;13.18;;;9.55;;
19621;SDS011;9958;33.196;-97.114;2023-04-03T14:11:42;14.88;;;10.32;;
19621;SDS011;9958;33.196;-97.114;2023-04-03T14:14:14;12.30;;;8.85;;
19621;SDS011;9958;33.196;-97.114;2023-04-03T14:16:46;12.90;;;9.50;;
19621;SDS011;9958;33.196;-97.114;2023-04-03T14:19:18;11.32;;;9.52;;
19621;SDS011;9958;33.196;-97.114;2023-04-03T14:21:48;13.38;;;9.15;;
19621;SDS011;9958;33.196;-97.114;2023-04-03T14:24:18;13.70;;;9.30;;
19621;SDS011;9958;33.196;-97.114;2023-04-03T14:26:47;11.35;;;9.20;;
19621;SDS011;9958;33.196;-97.114;2023-04-03T14:29:18;12.55;;;8.80;;
19621;SDS011;9958;33.196;-97.114;2023-04-03T14:31:47;13.10;;;8.98;;
19621;SDS011;9958;33.196;-97.114;2023-04-03T14:34:16;13.23;;;8.43;;
19621;SDS011;9958;33.196;-97.114;2023-04-03T14:36:45;9.40;;;8.45;;
19621;SDS011;9958;33.196;-97.114;2023-04-03T14:39:16;10.20;;;8.55;;
19621;SDS011;9958;33.196;-97.114;2023-04-03T14:41:45;13.20;;;8.70;;
19621;SDS011;9958;33.196;-97.114;2023-04-03T14:44:14;10.40;;;7.90;;
19621;SDS011;9958;33.196;-97.114;2023-04-03T14:46:44;16.58;;;8.23;;
19621;SDS011;9958;33.196;-97.114;2023-04-03T14:49:12;10.70;;;7.50;;
19621;SDS011;9958;33.196;-97.114;2023-04-03T14:51:42;11.32;;;7.45;;
19621;SDS011;9958;33.196;-97.114;2023-04-03T14:54:12;10.07;;;7.97;;
19621;SDS011;9958;33.196;-97.114;2023-04-03T14:56:41;11.82;;;7.57;;
19621;SDS011;9958;33.196;-97.114;2023-04-03T14:59:10;8.65;;;7.20;;
19621;SDS011;9958;33.196;-97.114;2023-04-03T15:01:40;9.43;;;7.10;;
19621;SDS011;9958;33.196;-97.114;2023-04-03T15:04:12;9.75;;;7.18;;
19621;SDS011;9958;33.196;-97.114;2023-04-03T15:06:42;10.07;;;6.82;;
19621;SDS011;9958;33.196;-97.114;2023-04-03T15:09:15;8.88;;;6.50;;
19621;SDS011;9958;33.196;-97.114;2023-04-03T15:11:48;10.82;;;6.25;;